Rechercher aéroport 
image banner adimage banner adimage banner ad
image banner ad

30CL - Long Beach Memorial Medical Center

Situé à Long Beach, United States

ICAO - 30CL, IATA -

Données fournies par Airmate  

Information générale

Coordonnées: N33°48'31" W118°11'12"
Élévation : 84 feet MSL.
Variation magnétique : 14° East
Voir autres Aéroports à California

Données opérationnelles

Special qualification required
Heure actuelle UTC:
Heure actuelle locale:
METAR: KLGB 020553Z 34006KT 10SM CLR 20/13 A3002 RMK AO2 SLP165 T02000133 10272 20200 51009
TAF: KLGB 020533Z 0206/0306 VRB03KT P6SM SKC FM021800 19006KT P6SM SKC FM022200 30012KT P6SM SKC FM030400 30006KT P6SM SKC
Voir NOTAMs / SUP AIP / TFR affectant cet aéroport [VIEW]
Fréquences de communication: [VIEW]

Pistes:

Coordonnées de l'aéroport

Adresse: Long Beach United States

Vue satellite de 30CL